sensor_id;sensor_type;location;lat;lon;timestamp;P1;durP1;ratioP1;P2;durP2;ratioP2
7051;SDS011;3567;52.444;13.556;2022-08-19T00:02:04;15.85;;;14.60;;
7051;SDS011;3567;52.444;13.556;2022-08-19T00:04:31;15.55;;;14.25;;
7051;SDS011;3567;52.444;13.556;2022-08-19T00:07:01;15.75;;;14.52;;
7051;SDS011;3567;52.444;13.556;2022-08-19T00:09:28;17.67;;;16.08;;
7051;SDS011;3567;52.444;13.556;2022-08-19T00:11:54;19.83;;;18.00;;
7051;SDS011;3567;52.444;13.556;2022-08-19T00:14:20;16.80;;;15.43;;
7051;SDS011;3567;52.444;13.556;2022-08-19T00:16:47;18.15;;;16.55;;
7051;SDS011;3567;52.444;13.556;2022-08-19T00:19:14;16.60;;;15.23;;
7051;SDS011;3567;52.444;13.556;2022-08-19T00:21:41;18.48;;;16.98;;
7051;SDS011;3567;52.444;13.556;2022-08-19T00:24:07;16.67;;;15.15;;
7051;SDS011;3567;52.444;13.556;2022-08-19T00:26:34;18.23;;;16.48;;
7051;SDS011;3567;52.444;13.556;2022-08-19T00:29:00;18.13;;;16.70;;
7051;SDS011;3567;52.444;13.556;2022-08-19T00:31:26;18.17;;;16.73;;
7051;SDS011;3567;52.444;13.556;2022-08-19T00:33:52;18.00;;;16.60;;
7051;SDS011;3567;52.444;13.556;2022-08-19T00:36:18;19.27;;;17.63;;
7051;SDS011;3567;52.444;13.556;2022-08-19T00:38:44;19.30;;;17.73;;
7051;SDS011;3567;52.444;13.556;2022-08-19T00:41:12;20.13;;;18.33;;
7051;SDS011;3567;52.444;13.556;2022-08-19T00:43:39;19.80;;;17.77;;
7051;SDS011;3567;52.444;13.556;2022-08-19T00:46:06;21.05;;;19.33;;
7051;SDS011;3567;52.444;13.556;2022-08-19T00:48:32;19.17;;;17.52;;
7051;SDS011;3567;52.444;13.556;2022-08-19T00:50:58;19.80;;;18.10;;
7051;SDS011;3567;52.444;13.556;2022-08-19T00:53:26;20.23;;;18.48;;
7051;SDS011;3567;52.444;13.556;2022-08-19T00:55:54;21.35;;;19.30;;
7051;SDS011;3567;52.444;13.556;2022-08-19T00:58:22;20.20;;;18.52;;
7051;SDS011;3567;52.444;13.556;2022-08-19T01:00:52;19.83;;;18.05;;
7051;SDS011;3567;52.444;13.556;2022-08-19T01:03:18;21.33;;;19.25;;
7051;SDS011;3567;52.444;13.556;2022-08-19T01:05:45;18.13;;;16.52;;
7051;SDS011;3567;52.444;13.556;2022-08-19T01:08:14;20.27;;;18.33;;
7051;SDS011;3567;52.444;13.556;2022-08-19T01:10:41;19.83;;;18.02;;
7051;SDS011;3567;52.444;13.556;2022-08-19T01:13:14;19.33;;;17.50;;
7051;SDS011;3567;52.444;13.556;2022-08-19T01:15:44;32.70;;;22.98;;
7051;SDS011;3567;52.444;13.556;2022-08-19T01:18:15;32.00;;;23.90;;
7051;SDS011;3567;52.444;13.556;2022-08-19T01:20:42;27.63;;;23.30;;
7051;SDS011;3567;52.444;13.556;2022-08-19T01:23:09;44.03;;;27.00;;
7051;SDS011;3567;52.444;13.556;2022-08-19T01:28:19;31.30;;;24.33;;
7051;SDS011;3567;52.444;13.556;2022-08-19T01:30:47;39.28;;;27.35;;
7051;SDS011;3567;52.444;13.556;2022-08-19T01:33:13;48.15;;;29.55;;
7051;SDS011;3567;52.444;13.556;2022-08-19T01:35:39;28.67;;;24.98;;
7051;SDS011;3567;52.444;13.556;2022-08-19T01:38:07;30.35;;;27.00;;
7051;SDS011;3567;52.444;13.556;2022-08-19T01:40:36;28.58;;;25.63;;
7051;SDS011;3567;52.444;13.556;2022-08-19T01:43:03;28.77;;;24.85;;
7051;SDS011;3567;52.444;13.556;2022-08-19T01:45:30;24.60;;;22.20;;
7051;SDS011;3567;52.444;13.556;2022-08-19T01:47:58;22.35;;;20.15;;
7051;SDS011;3567;52.444;13.556;2022-08-19T01:50:24;22.52;;;19.77;;
7051;SDS011;3567;52.444;13.556;2022-08-19T01:52:50;20.92;;;19.10;;
7051;SDS011;3567;52.444;13.556;2022-08-19T01:55:17;27.58;;;24.52;;
7051;SDS011;3567;52.444;13.556;2022-08-19T01:57:49;26.65;;;24.02;;
7051;SDS011;3567;52.444;13.556;2022-08-19T02:00:20;28.83;;;23.63;;
7051;SDS011;3567;52.444;13.556;2022-08-19T02:02:48;30.40;;;24.20;;
7051;SDS011;3567;52.444;13.556;2022-08-19T02:05:13;26.33;;;23.55;;
7051;SDS011;3567;52.444;13.556;2022-08-19T02:07:40;25.77;;;22.88;;
7051;SDS011;3567;52.444;13.556;2022-08-19T02:10:07;35.05;;;25.75;;
7051;SDS011;3567;52.444;13.556;2022-08-19T02:12:36;42.67;;;28.05;;
7051;SDS011;3567;52.444;13.556;2022-08-19T02:15:02;30.17;;;24.00;;
7051;SDS011;3567;52.444;13.556;2022-08-19T02:17:28;26.45;;;22.38;;
7051;SDS011;3567;52.444;13.556;2022-08-19T02:19:55;26.67;;;22.52;;
7051;SDS011;3567;52.444;13.556;2022-08-19T02:22:21;26.20;;;23.58;;
7051;SDS011;3567;52.444;13.556;2022-08-19T02:24:47;26.42;;;23.63;;
7051;SDS011;3567;52.444;13.556;2022-08-19T02:27:13;51.97;;;27.80;;
7051;SDS011;3567;52.444;13.556;2022-08-19T02:29:39;31.67;;;25.05;;
7051;SDS011;3567;52.444;13.556;2022-08-19T02:32:04;29.10;;;25.70;;
7051;SDS011;3567;52.444;13.556;2022-08-19T02:34:30;25.67;;;22.98;;
7051;SDS011;3567;52.444;13.556;2022-08-19T02:36:55;44.42;;;26.25;;
7051;SDS011;3567;52.444;13.556;2022-08-19T02:39:20;39.63;;;27.38;;
7051;SDS011;3567;52.444;13.556;2022-08-19T02:41:46;34.65;;;26.33;;
7051;SDS011;3567;52.444;13.556;2022-08-19T02:44:11;32.58;;;26.73;;
7051;SDS011;3567;52.444;13.556;2022-08-19T02:46:37;32.67;;;26.83;;
7051;SDS011;3567;52.444;13.556;2022-08-19T02:49:03;41.95;;;30.27;;
7051;SDS011;3567;52.444;13.556;2022-08-19T02:51:35;32.25;;;28.75;;
7051;SDS011;3567;52.444;13.556;2022-08-19T02:54:03;33.47;;;29.85;;
7051;SDS011;3567;52.444;13.556;2022-08-19T02:56:29;45.63;;;29.83;;
7051;SDS011;3567;52.444;13.556;2022-08-19T02:58:56;46.03;;;30.45;;
7051;SDS011;3567;52.444;13.556;2022-08-19T03:01:26;36.20;;;29.67;;
7051;SDS011;3567;52.444;13.556;2022-08-19T03:03:54;34.75;;;30.35;;
7051;SDS011;3567;52.444;13.556;2022-08-19T03:06:21;35.78;;;31.88;;
7051;SDS011;3567;52.444;13.556;2022-08-19T03:08:47;40.83;;;33.78;;
7051;SDS011;3567;52.444;13.556;2022-08-19T03:11:19;37.13;;;32.47;;
7051;SDS011;3567;52.444;13.556;2022-08-19T03:13:46;40.45;;;33.70;;
7051;SDS011;3567;52.444;13.556;2022-08-19T03:16:15;46.47;;;34.25;;
7051;SDS011;3567;52.444;13.556;2022-08-19T03:18:42;42.42;;;33.60;;
7051;SDS011;3567;52.444;13.556;2022-08-19T03:21:08;46.03;;;35.70;;
7051;SDS011;3567;52.444;13.556;2022-08-19T03:23:34;51.97;;;37.08;;
7051;SDS011;3567;52.444;13.556;2022-08-19T03:26:03;36.83;;;33.00;;
7051;SDS011;3567;52.444;13.556;2022-08-19T03:28:30;45.97;;;34.58;;
7051;SDS011;3567;52.444;13.556;2022-08-19T03:31:06;36.80;;;31.80;;
7051;SDS011;3567;52.444;13.556;2022-08-19T03:33:34;38.00;;;31.67;;
7051;SDS011;3567;52.444;13.556;2022-08-19T03:36:18;34.60;;;31.00;;
7051;SDS011;3567;52.444;13.556;2022-08-19T03:38:49;32.88;;;29.60;;
7051;SDS011;3567;52.444;13.556;2022-08-19T03:41:18;33.38;;;29.73;;
7051;SDS011;3567;52.444;13.556;2022-08-19T03:43:46;43.30;;;32.28;;
7051;SDS011;3567;52.444;13.556;2022-08-19T03:46:15;33.78;;;29.98;;
7051;SDS011;3567;52.444;13.556;2022-08-19T03:48:42;33.53;;;30.08;;
7051;SDS011;3567;52.444;13.556;2022-08-19T03:51:19;34.85;;;31.17;;
7051;SDS011;3567;52.444;13.556;2022-08-19T03:53:47;37.42;;;30.85;;
7051;SDS011;3567;52.444;13.556;2022-08-19T03:56:13;39.17;;;33.50;;
7051;SDS011;3567;52.444;13.556;2022-08-19T03:58:39;33.80;;;30.27;;
7051;SDS011;3567;52.444;13.556;2022-08-19T04:01:08;36.83;;;32.78;;
7051;SDS011;3567;52.444;13.556;2022-08-19T04:03:36;35.83;;;32.03;;
7051;SDS011;3567;52.444;13.556;2022-08-19T04:08:41;38.50;;;32.00;;
7051;SDS011;3567;52.444;13.556;2022-08-19T04:11:12;35.85;;;32.20;;
7051;SDS011;3567;52.444;13.556;2022-08-19T04:13:39;41.42;;;33.97;;
7051;SDS011;3567;52.444;13.556;2022-08-19T04:16:05;37.13;;;33.30;;
7051;SDS011;3567;52.444;13.556;2022-08-19T04:18:32;34.85;;;31.27;;
7051;SDS011;3567;52.444;13.556;2022-08-19T04:20:58;37.10;;;32.13;;
7051;SDS011;3567;52.444;13.556;2022-08-19T04:23:24;33.95;;;29.75;;
7051;SDS011;3567;52.444;13.556;2022-08-19T04:25:50;34.72;;;31.27;;
7051;SDS011;3567;52.444;13.556;2022-08-19T04:28:15;34.50;;;30.88;;
7051;SDS011;3567;52.444;13.556;2022-08-19T04:30:42;34.05;;;30.42;;
7051;SDS011;3567;52.444;13.556;2022-08-19T04:33:13;38.15;;;32.25;;
7051;SDS011;3567;52.444;13.556;2022-08-19T04:35:41;31.77;;;28.55;;
7051;SDS011;3567;52.444;13.556;2022-08-19T04:38:10;34.97;;;31.27;;
7051;SDS011;3567;52.444;13.556;2022-08-19T04:40:43;33.80;;;30.08;;
7051;SDS011;3567;52.444;13.556;2022-08-19T04:43:29;37.20;;;32.40;;
7051;SDS011;3567;52.444;13.556;2022-08-19T04:45:55;30.88;;;27.83;;
7051;SDS011;3567;52.444;13.556;2022-08-19T04:48:21;31.48;;;28.25;;
7051;SDS011;3567;52.444;13.556;2022-08-19T04:50:54;33.97;;;30.45;;
7051;SDS011;3567;52.444;13.556;2022-08-19T04:53:33;33.47;;;30.08;;
7051;SDS011;3567;52.444;13.556;2022-08-19T04:56:04;33.85;;;30.20;;
7051;SDS011;3567;52.444;13.556;2022-08-19T04:58:32;35.03;;;30.70;;
7051;SDS011;3567;52.444;13.556;2022-08-19T05:00:59;32.05;;;29.05;;
7051;SDS011;3567;52.444;13.556;2022-08-19T05:03:27;32.95;;;29.55;;
7051;SDS011;3567;52.444;13.556;2022-08-19T05:05:58;31.63;;;28.65;;
7051;SDS011;3567;52.444;13.556;2022-08-19T05:08:30;31.67;;;28.58;;
7051;SDS011;3567;52.444;13.556;2022-08-19T05:10:55;29.80;;;27.10;;
7051;SDS011;3567;52.444;13.556;2022-08-19T05:13:22;31.45;;;27.50;;
7051;SDS011;3567;52.444;13.556;2022-08-19T05:15:55;32.33;;;29.10;;
7051;SDS011;3567;52.444;13.556;2022-08-19T05:18:21;29.75;;;26.45;;
7051;SDS011;3567;52.444;13.556;2022-08-19T05:21:10;30.80;;;27.92;;
7051;SDS011;3567;52.444;13.556;2022-08-19T05:23:56;27.98;;;25.08;;
7051;SDS011;3567;52.444;13.556;2022-08-19T05:26:22;28.27;;;25.58;;
7051;SDS011;3567;52.444;13.556;2022-08-19T05:28:48;28.20;;;25.48;;
7051;SDS011;3567;52.444;13.556;2022-08-19T05:31:13;27.67;;;25.33;;
7051;SDS011;3567;52.444;13.556;2022-08-19T05:33:39;27.10;;;24.60;;
7051;SDS011;3567;52.444;13.556;2022-08-19T05:36:04;26.92;;;24.38;;
7051;SDS011;3567;52.444;13.556;2022-08-19T05:38:32;27.52;;;24.92;;
7051;SDS011;3567;52.444;13.556;2022-08-19T05:40:58;25.17;;;22.85;;
7051;SDS011;3567;52.444;13.556;2022-08-19T05:43:23;27.60;;;25.08;;
7051;SDS011;3567;52.444;13.556;2022-08-19T05:45:49;29.50;;;26.65;;
7051;SDS011;3567;52.444;13.556;2022-08-19T05:48:15;25.40;;;23.20;;
7051;SDS011;3567;52.444;13.556;2022-08-19T05:50:42;25.83;;;23.23;;
7051;SDS011;3567;52.444;13.556;2022-08-19T05:53:09;27.25;;;24.58;;
7051;SDS011;3567;52.444;13.556;2022-08-19T05:55:35;27.58;;;25.17;;
7051;SDS011;3567;52.444;13.556;2022-08-19T05:58:03;27.33;;;24.73;;
7051;SDS011;3567;52.444;13.556;2022-08-19T06:00:28;27.58;;;25.20;;
7051;SDS011;3567;52.444;13.556;2022-08-19T06:02:56;28.25;;;25.65;;
7051;SDS011;3567;52.444;13.556;2022-08-19T06:05:24;26.35;;;23.92;;
7051;SDS011;3567;52.444;13.556;2022-08-19T06:07:50;26.02;;;23.67;;
7051;SDS011;3567;52.444;13.556;2022-08-19T06:10:15;23.52;;;21.40;;
7051;SDS011;3567;52.444;13.556;2022-08-19T06:15:30;25.02;;;22.75;;
7051;SDS011;3567;52.444;13.556;2022-08-19T06:17:56;26.63;;;24.10;;
7051;SDS011;3567;52.444;13.556;2022-08-19T06:20:21;26.10;;;24.00;;
7051;SDS011;3567;52.444;13.556;2022-08-19T06:22:48;26.58;;;24.15;;
7051;SDS011;3567;52.444;13.556;2022-08-19T06:25:15;24.85;;;22.75;;
7051;SDS011;3567;52.444;13.556;2022-08-19T06:27:40;26.83;;;24.40;;
7051;SDS011;3567;52.444;13.556;2022-08-19T06:30:06;26.88;;;24.45;;
7051;SDS011;3567;52.444;13.556;2022-08-19T06:32:32;26.15;;;23.50;;
7051;SDS011;3567;52.444;13.556;2022-08-19T06:34:57;27.58;;;24.92;;
7051;SDS011;3567;52.444;13.556;2022-08-19T06:37:23;28.63;;;25.92;;
7051;SDS011;3567;52.444;13.556;2022-08-19T06:39:49;24.55;;;22.33;;
7051;SDS011;3567;52.444;13.556;2022-08-19T06:42:15;25.70;;;23.42;;
7051;SDS011;3567;52.444;13.556;2022-08-19T06:44:44;27.05;;;24.75;;
7051;SDS011;3567;52.444;13.556;2022-08-19T06:47:12;23.52;;;21.45;;
7051;SDS011;3567;52.444;13.556;2022-08-19T06:49:40;24.52;;;22.25;;
7051;SDS011;3567;52.444;13.556;2022-08-19T06:52:05;25.73;;;23.65;;
7051;SDS011;3567;52.444;13.556;2022-08-19T06:54:31;25.80;;;23.13;;
7051;SDS011;3567;52.444;13.556;2022-08-19T06:56:57;25.27;;;23.08;;
7051;SDS011;3567;52.444;13.556;2022-08-19T06:59:27;23.10;;;21.20;;
7051;SDS011;3567;52.444;13.556;2022-08-19T07:01:54;26.13;;;23.83;;
7051;SDS011;3567;52.444;13.556;2022-08-19T07:04:28;24.92;;;22.63;;
7051;SDS011;3567;52.444;13.556;2022-08-19T07:07:07;26.25;;;23.75;;
7051;SDS011;3567;52.444;13.556;2022-08-19T07:09:37;27.00;;;24.30;;
7051;SDS011;3567;52.444;13.556;2022-08-19T07:12:05;27.08;;;24.83;;
7051;SDS011;3567;52.444;13.556;2022-08-19T07:14:33;26.92;;;24.60;;
7051;SDS011;3567;52.444;13.556;2022-08-19T07:17:02;28.27;;;25.63;;
7051;SDS011;3567;52.444;13.556;2022-08-19T07:19:30;26.98;;;24.38;;
7051;SDS011;3567;52.444;13.556;2022-08-19T07:21:56;28.00;;;25.60;;
7051;SDS011;3567;52.444;13.556;2022-08-19T07:24:24;27.48;;;25.20;;
7051;SDS011;3567;52.444;13.556;2022-08-19T07:26:52;27.17;;;24.67;;
7051;SDS011;3567;52.444;13.556;2022-08-19T07:29:20;26.60;;;24.10;;
7051;SDS011;3567;52.444;13.556;2022-08-19T07:31:53;27.50;;;24.83;;
7051;SDS011;3567;52.444;13.556;2022-08-19T07:34:21;26.55;;;24.25;;
7051;SDS011;3567;52.444;13.556;2022-08-19T07:36:48;30.55;;;27.75;;
7051;SDS011;3567;52.444;13.556;2022-08-19T07:39:18;26.52;;;24.25;;
7051;SDS011;3567;52.444;13.556;2022-08-19T07:41:47;26.13;;;23.75;;
7051;SDS011;3567;52.444;13.556;2022-08-19T07:44:13;24.98;;;22.70;;
7051;SDS011;3567;52.444;13.556;2022-08-19T07:46:44;29.88;;;26.77;;
7051;SDS011;3567;52.444;13.556;2022-08-19T07:49:13;27.33;;;24.73;;
7051;SDS011;3567;52.444;13.556;2022-08-19T07:51:44;27.60;;;25.05;;
7051;SDS011;3567;52.444;13.556;2022-08-19T07:54:15;23.40;;;21.48;;
7051;SDS011;3567;52.444;13.556;2022-08-19T07:56:40;27.83;;;25.30;;
7051;SDS011;3567;52.444;13.556;2022-08-19T07:59:06;26.98;;;24.52;;
7051;SDS011;3567;52.444;13.556;2022-08-19T08:01:32;25.98;;;23.88;;
7051;SDS011;3567;52.444;13.556;2022-08-19T08:03:58;21.23;;;19.48;;
7051;SDS011;3567;52.444;13.556;2022-08-19T08:06:42;23.55;;;21.38;;
7051;SDS011;3567;52.444;13.556;2022-08-19T08:09:29;24.77;;;22.67;;
7051;SDS011;3567;52.444;13.556;2022-08-19T08:12:00;22.08;;;20.15;;
7051;SDS011;3567;52.444;13.556;2022-08-19T08:14:41;23.23;;;21.38;;
7051;SDS011;3567;52.444;13.556;2022-08-19T08:17:09;20.30;;;18.55;;
7051;SDS011;3567;52.444;13.556;2022-08-19T08:19:36;22.55;;;20.55;;
7051;SDS011;3567;52.444;13.556;2022-08-19T08:22:03;21.45;;;19.73;;
7051;SDS011;3567;52.444;13.556;2022-08-19T08:24:31;20.67;;;18.73;;
7051;SDS011;3567;52.444;13.556;2022-08-19T08:26:57;21.33;;;19.17;;
7051;SDS011;3567;52.444;13.556;2022-08-19T08:29:25;21.17;;;19.13;;
7051;SDS011;3567;52.444;13.556;2022-08-19T08:31:52;18.00;;;16.55;;
7051;SDS011;3567;52.444;13.556;2022-08-19T08:34:19;20.10;;;18.25;;
7051;SDS011;3567;52.444;13.556;2022-08-19T08:36:45;18.35;;;16.77;;
7051;SDS011;3567;52.444;13.556;2022-08-19T08:39:12;20.00;;;18.10;;
7051;SDS011;3567;52.444;13.556;2022-08-19T08:44:40;17.50;;;16.20;;
7051;SDS011;3567;52.444;13.556;2022-08-19T08:47:16;17.92;;;16.42;;
7051;SDS011;3567;52.444;13.556;2022-08-19T08:49:49;17.65;;;16.17;;
7051;SDS011;3567;52.444;13.556;2022-08-19T08:52:21;18.63;;;17.00;;
7051;SDS011;3567;52.444;13.556;2022-08-19T08:54:47;17.88;;;16.17;;
7051;SDS011;3567;52.444;13.556;2022-08-19T08:57:17;17.33;;;15.93;;
7051;SDS011;3567;52.444;13.556;2022-08-19T08:59:48;17.73;;;16.33;;
7051;SDS011;3567;52.444;13.556;2022-08-19T09:02:18;17.83;;;16.25;;
7051;SDS011;3567;52.444;13.556;2022-08-19T09:04:44;18.02;;;16.52;;
7051;SDS011;3567;52.444;13.556;2022-08-19T09:07:30;19.08;;;17.40;;
7051;SDS011;3567;52.444;13.556;2022-08-19T09:15:43;17.98;;;16.15;;
7051;SDS011;3567;52.444;13.556;2022-08-19T09:18:13;17.58;;;15.95;;
7051;SDS011;3567;52.444;13.556;2022-08-19T09:20:40;18.73;;;17.05;;
7051;SDS011;3567;52.444;13.556;2022-08-19T09:23:05;18.00;;;16.40;;
7051;SDS011;3567;52.444;13.556;2022-08-19T09:25:31;18.20;;;16.67;;
7051;SDS011;3567;52.444;13.556;2022-08-19T09:27:57;18.58;;;16.73;;
7051;SDS011;3567;52.444;13.556;2022-08-19T09:30:28;16.98;;;15.57;;
7051;SDS011;3567;52.444;13.556;2022-08-19T09:32:58;16.45;;;15.15;;
7051;SDS011;3567;52.444;13.556;2022-08-19T09:35:25;17.83;;;16.02;;
7051;SDS011;3567;52.444;13.556;2022-08-19T09:37:53;17.88;;;16.33;;
7051;SDS011;3567;52.444;13.556;2022-08-19T09:40:20;16.88;;;15.40;;
7051;SDS011;3567;52.444;13.556;2022-08-19T09:42:46;17.05;;;15.45;;
7051;SDS011;3567;52.444;13.556;2022-08-19T09:45:12;16.02;;;14.73;;
7051;SDS011;3567;52.444;13.556;2022-08-19T09:47:39;18.05;;;16.65;;
7051;SDS011;3567;52.444;13.556;2022-08-19T09:50:05;20.15;;;18.23;;
7051;SDS011;3567;52.444;13.556;2022-08-19T09:52:32;20.60;;;18.88;;
7051;SDS011;3567;52.444;13.556;2022-08-19T09:54:59;20.95;;;19.20;;
7051;SDS011;3567;52.444;13.556;2022-08-19T09:57:25;20.20;;;18.70;;
7051;SDS011;3567;52.444;13.556;2022-08-19T09:59:50;20.52;;;18.92;;
7051;SDS011;3567;52.444;13.556;2022-08-19T10:02:16;19.80;;;17.90;;
7051;SDS011;3567;52.444;13.556;2022-08-19T10:04:41;20.70;;;19.00;;
7051;SDS011;3567;52.444;13.556;2022-08-19T10:07:25;20.52;;;18.77;;
7051;SDS011;3567;52.444;13.556;2022-08-19T10:09:50;19.48;;;17.90;;
7051;SDS011;3567;52.444;13.556;2022-08-19T10:12:15;22.27;;;20.33;;
7051;SDS011;3567;52.444;13.556;2022-08-19T10:14:41;22.58;;;20.77;;
7051;SDS011;3567;52.444;13.556;2022-08-19T10:17:07;21.42;;;19.50;;
7051;SDS011;3567;52.444;13.556;2022-08-19T10:19:32;21.83;;;20.05;;
7051;SDS011;3567;52.444;13.556;2022-08-19T10:22:04;21.20;;;19.40;;
7051;SDS011;3567;52.444;13.556;2022-08-19T10:24:30;20.15;;;18.55;;
7051;SDS011;3567;52.444;13.556;2022-08-19T10:26:57;19.48;;;17.95;;
7051;SDS011;3567;52.444;13.556;2022-08-19T10:29:24;18.95;;;17.35;;
7051;SDS011;3567;52.444;13.556;2022-08-19T10:31:49;19.52;;;17.77;;
7051;SDS011;3567;52.444;13.556;2022-08-19T10:34:15;18.02;;;16.73;;
7051;SDS011;3567;52.444;13.556;2022-08-19T10:36:41;19.42;;;17.83;;
7051;SDS011;3567;52.444;13.556;2022-08-19T10:39:08;19.58;;;17.95;;
7051;SDS011;3567;52.444;13.556;2022-08-19T10:41:36;19.67;;;17.77;;
7051;SDS011;3567;52.444;13.556;2022-08-19T10:44:04;20.58;;;18.63;;
7051;SDS011;3567;52.444;13.556;2022-08-19T10:46:33;17.73;;;16.13;;
7051;SDS011;3567;52.444;13.556;2022-08-19T10:49:01;18.70;;;17.08;;
7051;SDS011;3567;52.444;13.556;2022-08-19T10:51:28;17.17;;;15.60;;
7051;SDS011;3567;52.444;13.556;2022-08-19T10:54:12;17.33;;;15.70;;
7051;SDS011;3567;52.444;13.556;2022-08-19T10:56:38;18.65;;;17.05;;
7051;SDS011;3567;52.444;13.556;2022-08-19T10:59:28;18.30;;;16.63;;
7051;SDS011;3567;52.444;13.556;2022-08-19T11:01:58;18.08;;;16.38;;
7051;SDS011;3567;52.444;13.556;2022-08-19T11:04:25;18.60;;;16.90;;
7051;SDS011;3567;52.444;13.556;2022-08-19T11:06:51;18.02;;;16.48;;
7051;SDS011;3567;52.444;13.556;2022-08-19T11:09:22;19.40;;;17.65;;
7051;SDS011;3567;52.444;13.556;2022-08-19T11:11:50;18.50;;;17.00;;
7051;SDS011;3567;52.444;13.556;2022-08-19T11:14:18;18.80;;;16.90;;
7051;SDS011;3567;52.444;13.556;2022-08-19T11:16:46;18.15;;;16.65;;
7051;SDS011;3567;52.444;13.556;2022-08-19T11:19:13;17.15;;;15.88;;
7051;SDS011;3567;52.444;13.556;2022-08-19T11:21:42;16.52;;;15.23;;
7051;SDS011;3567;52.444;13.556;2022-08-19T11:24:11;19.25;;;17.60;;
7051;SDS011;3567;52.444;13.556;2022-08-19T11:26:40;16.95;;;15.25;;
7051;SDS011;3567;52.444;13.556;2022-08-19T11:29:07;17.52;;;15.88;;
7051;SDS011;3567;52.444;13.556;2022-08-19T11:31:38;17.40;;;15.90;;
7051;SDS011;3567;52.444;13.556;2022-08-19T11:34:07;17.15;;;15.75;;
7051;SDS011;3567;52.444;13.556;2022-08-19T11:36:34;16.20;;;15.00;;
7051;SDS011;3567;52.444;13.556;2022-08-19T11:39:04;16.45;;;14.95;;
7051;SDS011;3567;52.444;13.556;2022-08-19T11:41:31;16.90;;;15.45;;
7051;SDS011;3567;52.444;13.556;2022-08-19T11:43:56;15.60;;;14.30;;
7051;SDS011;3567;52.444;13.556;2022-08-19T11:46:23;15.60;;;14.07;;
7051;SDS011;3567;52.444;13.556;2022-08-19T11:48:50;17.52;;;15.57;;
7051;SDS011;3567;52.444;13.556;2022-08-19T11:51:17;15.45;;;14.02;;
7051;SDS011;3567;52.444;13.556;2022-08-19T11:53:45;15.93;;;14.52;;
7051;SDS011;3567;52.444;13.556;2022-08-19T11:56:11;15.68;;;14.27;;
7051;SDS011;3567;52.444;13.556;2022-08-19T11:58:37;16.13;;;14.75;;
7051;SDS011;3567;52.444;13.556;2022-08-19T12:01:11;14.80;;;13.40;;
7051;SDS011;3567;52.444;13.556;2022-08-19T12:03:48;15.80;;;14.52;;
7051;SDS011;3567;52.444;13.556;2022-08-19T12:06:29;14.85;;;13.68;;
7051;SDS011;3567;52.444;13.556;2022-08-19T12:08:57;15.18;;;13.88;;
7051;SDS011;3567;52.444;13.556;2022-08-19T12:11:24;15.43;;;14.10;;
7051;SDS011;3567;52.444;13.556;2022-08-19T12:13:51;13.82;;;12.63;;
7051;SDS011;3567;52.444;13.556;2022-08-19T12:16:22;15.10;;;13.80;;
7051;SDS011;3567;52.444;13.556;2022-08-19T12:18:49;15.43;;;13.85;;
7051;SDS011;3567;52.444;13.556;2022-08-19T12:21:18;14.63;;;13.43;;
7051;SDS011;3567;52.444;13.556;2022-08-19T12:23:50;14.38;;;13.20;;
7051;SDS011;3567;52.444;13.556;2022-08-19T12:26:16;15.35;;;13.77;;
7051;SDS011;3567;52.444;13.556;2022-08-19T12:28:42;12.60;;;11.63;;
7051;SDS011;3567;52.444;13.556;2022-08-19T12:31:08;14.02;;;12.75;;
7051;SDS011;3567;52.444;13.556;2022-08-19T12:33:37;14.23;;;13.13;;
7051;SDS011;3567;52.444;13.556;2022-08-19T12:36:03;13.23;;;11.90;;
7051;SDS011;3567;52.444;13.556;2022-08-19T12:38:31;13.52;;;12.48;;
7051;SDS011;3567;52.444;13.556;2022-08-19T12:40:58;13.27;;;12.05;;
7051;SDS011;3567;52.444;13.556;2022-08-19T12:43:23;12.18;;;11.27;;
7051;SDS011;3567;52.444;13.556;2022-08-19T12:45:49;15.30;;;11.95;;
7051;SDS011;3567;52.444;13.556;2022-08-19T12:48:15;13.05;;;11.73;;
7051;SDS011;3567;52.444;13.556;2022-08-19T12:50:42;12.18;;;11.20;;
7051;SDS011;3567;52.444;13.556;2022-08-19T12:53:10;13.65;;;12.32;;
7051;SDS011;3567;52.444;13.556;2022-08-19T12:55:36;12.98;;;11.95;;
7051;SDS011;3567;52.444;13.556;2022-08-19T12:58:01;10.77;;;9.98;;
7051;SDS011;3567;52.444;13.556;2022-08-19T13:00:27;11.95;;;10.82;;
7051;SDS011;3567;52.444;13.556;2022-08-19T13:02:53;22.70;;;12.27;;
7051;SDS011;3567;52.444;13.556;2022-08-19T13:05:20;12.50;;;11.45;;
7051;SDS011;3567;52.444;13.556;2022-08-19T13:07:49;10.93;;;9.93;;
7051;SDS011;3567;52.444;13.556;2022-08-19T13:10:18;11.63;;;10.50;;
7051;SDS011;3567;52.444;13.556;2022-08-19T13:12:46;11.32;;;10.30;;
7051;SDS011;3567;52.444;13.556;2022-08-19T13:15:13;10.48;;;9.77;;
7051;SDS011;3567;52.444;13.556;2022-08-19T13:17:43;11.30;;;10.30;;
7051;SDS011;3567;52.444;13.556;2022-08-19T13:20:08;9.73;;;9.05;;
7051;SDS011;3567;52.444;13.556;2022-08-19T13:22:35;9.05;;;8.25;;
7051;SDS011;3567;52.444;13.556;2022-08-19T13:25:02;9.73;;;8.93;;
7051;SDS011;3567;52.444;13.556;2022-08-19T13:27:28;9.75;;;8.80;;
7051;SDS011;3567;52.444;13.556;2022-08-19T13:29:54;10.10;;;8.98;;
7051;SDS011;3567;52.444;13.556;2022-08-19T13:32:38;9.45;;;8.68;;
7051;SDS011;3567;52.444;13.556;2022-08-19T13:35:22;9.20;;;8.57;;
7051;SDS011;3567;52.444;13.556;2022-08-19T13:37:47;9.93;;;9.20;;
7051;SDS011;3567;52.444;13.556;2022-08-19T13:40:15;10.43;;;9.48;;
7051;SDS011;3567;52.444;13.556;2022-08-19T13:42:44;10.02;;;9.27;;
7051;SDS011;3567;52.444;13.556;2022-08-19T13:45:11;11.13;;;10.32;;
7051;SDS011;3567;52.444;13.556;2022-08-19T13:47:37;10.55;;;9.75;;
7051;SDS011;3567;52.444;13.556;2022-08-19T13:50:08;11.68;;;10.77;;
7051;SDS011;3567;52.444;13.556;2022-08-19T13:52:35;11.32;;;10.43;;
7051;SDS011;3567;52.444;13.556;2022-08-19T13:55:01;11.40;;;10.60;;
7051;SDS011;3567;52.444;13.556;2022-08-19T13:57:26;10.48;;;9.48;;
7051;SDS011;3567;52.444;13.556;2022-08-19T13:59:52;12.55;;;11.55;;
7051;SDS011;3567;52.444;13.556;2022-08-19T14:02:18;11.68;;;10.70;;
7051;SDS011;3567;52.444;13.556;2022-08-19T14:04:43;11.25;;;10.35;;
7051;SDS011;3567;52.444;13.556;2022-08-19T14:07:09;11.93;;;10.85;;
7051;SDS011;3567;52.444;13.556;2022-08-19T14:09:35;11.85;;;10.82;;
7051;SDS011;3567;52.444;13.556;2022-08-19T14:12:00;12.68;;;11.73;;
7051;SDS011;3567;52.444;13.556;2022-08-19T14:14:26;13.63;;;12.30;;
7051;SDS011;3567;52.444;13.556;2022-08-19T14:16:51;14.15;;;12.98;;
7051;SDS011;3567;52.444;13.556;2022-08-19T14:19:16;12.63;;;11.35;;
7051;SDS011;3567;52.444;13.556;2022-08-19T14:21:42;13.38;;;12.32;;
7051;SDS011;3567;52.444;13.556;2022-08-19T14:24:07;13.02;;;12.02;;
7051;SDS011;3567;52.444;13.556;2022-08-19T14:26:34;12.10;;;11.20;;
7051;SDS011;3567;52.444;13.556;2022-08-19T14:28:59;12.38;;;11.35;;
7051;SDS011;3567;52.444;13.556;2022-08-19T14:31:26;12.05;;;11.02;;
7051;SDS011;3567;52.444;13.556;2022-08-19T14:33:51;12.35;;;11.18;;
7051;SDS011;3567;52.444;13.556;2022-08-19T14:36:17;11.27;;;10.25;;
7051;SDS011;3567;52.444;13.556;2022-08-19T14:38:44;11.35;;;10.45;;
7051;SDS011;3567;52.444;13.556;2022-08-19T14:41:17;11.75;;;10.77;;
7051;SDS011;3567;52.444;13.556;2022-08-19T14:43:49;12.45;;;11.45;;
7051;SDS011;3567;52.444;13.556;2022-08-19T14:46:19;12.73;;;11.45;;
7051;SDS011;3567;52.444;13.556;2022-08-19T14:48:46;11.90;;;11.10;;
7051;SDS011;3567;52.444;13.556;2022-08-19T14:51:13;12.65;;;11.73;;
7051;SDS011;3567;52.444;13.556;2022-08-19T14:53:39;12.80;;;11.80;;
7051;SDS011;3567;52.444;13.556;2022-08-19T14:56:11;11.35;;;10.55;;
7051;SDS011;3567;52.444;13.556;2022-08-19T14:58:40;13.15;;;12.15;;